Archival Weather

Chicago O'Hare International

Chicago, Illinois (KORD)

Report from: Tuesday, May 2, 2023 10:51 AM CDT
Current time: Sunday, February 25, 2024 3:48 PM CST

Current weather – Weather history – Daily summaries
Weather forecast

Temperature11.1°C (52.0°F)
Dew point0.0°C (32.0°F)
Winds 14 kts (7.2 m/s, 16.1 mph) West (280°)
Wind gusts 25 kts (12.9 m/s, 28.8 mph)
Visibility10 mi. (16.1 km)
Clouds Ceiling: Broken clouds 4,700 ft. (1,433 m)
Broken clouds 7,500 ft. (2,286 m)
Broken clouds 25,000 ft. (7,620 m)
Altimeter29.57 in.Hg (1001 mB)
Relative humidity46 %
Density altitude36 ft. (11 m)
Sea-level pressure100.1 kPa (1001 mB, 29.57 in.Hg)
Remarks Automated weather observing station with precipitation discriminator
Flight conditions Visual Meteorological Conditions
Raw dataKORD 021551Z 28014G25KT 10SM BKN047 BKN075 BKN250 11/00 A2957 RMK AO2 SLP013 T01110000
An error has occurred. This application may no longer respond until reloaded. Reload 🗙